createdAt,value
2019-05-30T00:01:14.313Z,1.20
2019-05-30T00:03:43.032Z,5.05
2019-05-30T00:06:11.756Z,2.30
2019-05-30T00:08:40.429Z,2.02
2019-05-30T00:11:09.143Z,3.27
2019-05-30T00:13:37.884Z,2.55
2019-05-30T00:16:06.639Z,2.85
2019-05-30T00:18:35.356Z,2.30
2019-05-30T00:21:05.050Z,2.72
2019-05-30T00:23:33.926Z,1.10
2019-05-30T00:26:03.394Z,1.20
2019-05-30T00:28:32.226Z,2.58
2019-05-30T00:31:00.874Z,2.22
2019-05-30T00:33:29.600Z,4.97
2019-05-30T00:35:58.321Z,2.25
2019-05-30T00:38:27.368Z,1.47
2019-05-30T00:40:56.017Z,2.02
2019-05-30T00:43:24.736Z,2.60
2019-05-30T00:45:53.482Z,1.90
2019-05-30T00:48:22.129Z,1.60
2019-05-30T00:50:50.782Z,3.75
2019-05-30T00:53:19.455Z,9.05
2019-05-30T00:55:48.155Z,3.87
2019-05-30T00:58:16.821Z,1.90
2019-05-30T01:00:45.483Z,2.62
2019-05-30T01:03:14.133Z,2.00
2019-05-30T01:05:42.787Z,2.87
2019-05-30T01:08:11.501Z,8.83
2019-05-30T01:10:40.226Z,2.83
2019-05-30T01:13:08.910Z,4.42
2019-05-30T01:15:37.626Z,2.72
2019-05-30T01:18:07.367Z,4.00
2019-05-30T01:20:36.171Z,2.62
2019-05-30T01:23:05.331Z,6.05
2019-05-30T01:25:34.110Z,2.92
2019-05-30T01:28:03.643Z,2.47
2019-05-30T01:30:32.404Z,2.70
2019-05-30T01:33:01.797Z,3.22
2019-05-30T01:35:30.748Z,6.70
2019-05-30T01:37:59.658Z,4.67
2019-05-30T01:40:28.485Z,2.80
2019-05-30T01:42:57.895Z,3.83
2019-05-30T01:45:26.721Z,4.45
2019-05-30T01:47:55.389Z,7.10
2019-05-30T01:50:24.113Z,3.30
2019-05-30T01:52:52.835Z,4.12
2019-05-30T01:55:21.555Z,3.72
2019-05-30T01:57:50.196Z,3.55
2019-05-30T02:00:21.542Z,5.03
2019-05-30T02:02:49.657Z,2.62
2019-05-30T02:05:18.774Z,3.35
2019-05-30T02:07:47.505Z,3.22
2019-05-30T02:10:16.526Z,7.00
2019-05-30T02:12:45.247Z,5.65
2019-05-30T02:15:14.371Z,2.52
2019-05-30T02:17:43.052Z,5.15
2019-05-30T02:20:12.671Z,5.33
2019-05-30T02:22:41.317Z,6.12
2019-05-30T02:25:10.474Z,2.58
2019-05-30T02:27:39.150Z,3.65
2019-05-30T02:30:14.015Z,2.17
2019-05-30T02:32:39.327Z,2.47
2019-05-30T02:35:10.302Z,2.47
2019-05-30T02:37:38.721Z,3.62
2019-05-30T02:40:12.321Z,2.10
2019-05-30T02:42:39.280Z,2.55
2019-05-30T02:45:10.662Z,2.62
2019-05-30T02:47:39.503Z,9.00
2019-05-30T02:50:11.037Z,4.95
2019-05-30T02:52:39.278Z,1.90
2019-05-30T02:55:10.622Z,1.85
2019-05-30T02:57:38.559Z,2.37
2019-05-30T03:00:15.350Z,4.28
2019-05-30T03:02:39.141Z,5.55
2019-05-30T03:05:10.878Z,2.62
2019-05-30T03:07:38.429Z,2.40
2019-05-30T03:10:10.279Z,2.60
2019-05-30T03:12:39.302Z,3.20
2019-05-30T03:15:11.750Z,7.42
2019-05-30T03:17:39.130Z,4.55
2019-05-30T03:20:18.303Z,2.60
2019-05-30T03:22:39.744Z,4.17
2019-05-30T03:25:11.042Z,2.17
2019-05-30T03:27:39.146Z,6.70
2019-05-30T03:30:20.426Z,2.17
2019-05-30T03:35:18.449Z,3.02
2019-05-30T03:37:39.340Z,2.05
2019-05-30T03:40:08.348Z,1.62
2019-05-30T03:42:37.105Z,1.90
2019-05-30T03:45:10.722Z,1.77
2019-05-30T03:47:40.361Z,1.55
2019-05-30T03:50:15.199Z,2.27
2019-05-30T03:52:42.991Z,6.08
2019-05-30T03:55:14.447Z,8.73
2019-05-30T03:57:48.098Z,3.10
2019-05-30T04:00:55.102Z,3.37
2019-05-30T04:03:55.523Z,5.25
2019-05-30T04:06:30.197Z,7.28
2019-05-30T04:09:01.854Z,8.83
2019-05-30T04:11:51.090Z,9.33
2019-05-30T04:14:22.761Z,11.70
2019-05-30T04:16:51.495Z,12.80
2019-05-30T04:19:20.316Z,13.45
2019-05-30T04:21:49.111Z,16.32
2019-05-30T04:24:17.780Z,17.02
2019-05-30T04:26:46.524Z,14.93
2019-05-30T04:29:16.741Z,16.55
2019-05-30T04:31:45.563Z,14.73
2019-05-30T04:34:14.944Z,11.20
2019-05-30T04:36:44.634Z,10.30
2019-05-30T04:39:17.209Z,10.43
2019-05-30T04:41:46.063Z,10.85
2019-05-30T04:44:16.329Z,10.40
2019-05-30T04:46:45.093Z,8.57
2019-05-30T04:49:14.477Z,7.92
2019-05-30T04:51:44.082Z,6.95
2019-05-30T04:54:14.501Z,7.53
2019-05-30T04:56:43.177Z,6.97
2019-05-30T04:59:12.947Z,7.22
2019-05-30T05:01:41.766Z,6.35
2019-05-30T05:04:11.454Z,6.40
2019-05-30T05:06:40.354Z,6.22
2019-05-30T05:09:08.944Z,5.50
2019-05-30T05:11:37.678Z,4.42
2019-05-30T05:14:06.256Z,3.83
2019-05-30T05:16:36.497Z,3.40
2019-05-30T05:19:05.391Z,3.17
2019-05-30T05:21:34.109Z,3.47
2019-05-30T05:24:02.761Z,3.10
2019-05-30T05:26:31.416Z,2.20
2019-05-30T05:29:00.144Z,1.80
2019-05-30T05:31:28.806Z,1.32
2019-05-30T05:33:57.558Z,1.07
2019-05-30T05:36:26.183Z,1.25
2019-05-30T05:38:54.900Z,1.32
2019-05-30T05:41:24.333Z,0.98
2019-05-30T05:43:53.077Z,0.85
2019-05-30T05:46:22.569Z,0.80
2019-05-30T05:48:51.432Z,1.05
2019-05-30T05:51:20.794Z,0.50
2019-05-30T05:53:49.619Z,9.20
2019-05-30T05:56:18.797Z,1.35
2019-05-30T05:58:47.605Z,1.40
2019-05-30T06:01:17.337Z,0.80
2019-05-30T06:03:46.232Z,0.60
2019-05-30T06:06:14.876Z,0.62
2019-05-30T06:08:43.597Z,0.60
2019-05-30T06:11:12.326Z,0.62
2019-05-30T06:13:41.051Z,10.48
2019-05-30T06:16:09.712Z,0.60
2019-05-30T06:18:38.432Z,0.60
2019-05-30T06:21:07.152Z,0.70
2019-05-30T06:23:35.874Z,0.70
2019-05-30T06:26:04.630Z,0.55
2019-05-30T06:28:33.358Z,0.90
2019-05-30T06:31:02.020Z,1.25
2019-05-30T06:33:30.752Z,0.70
2019-05-30T06:35:59.398Z,4.92
2019-05-30T06:38:29.413Z,5.50
2019-05-30T06:40:58.228Z,0.72
2019-05-30T06:43:28.149Z,0.80
2019-05-30T06:45:57.008Z,0.80
2019-05-30T06:48:26.877Z,0.60
2019-05-30T06:50:55.759Z,0.62
2019-05-30T06:53:25.132Z,0.55
2019-05-30T06:55:53.840Z,0.70
2019-05-30T06:58:39.178Z,0.55
2019-05-30T07:00:52.872Z,0.80
2019-05-30T07:03:22.143Z,0.95
2019-05-30T07:05:51.461Z,0.70
2019-05-30T07:08:20.556Z,0.70
2019-05-30T07:10:49.228Z,1.30
2019-05-30T07:13:17.991Z,1.20
2019-05-30T07:15:46.705Z,1.20
2019-05-30T07:18:15.356Z,1.30
2019-05-30T07:20:44.081Z,1.52
2019-05-30T07:23:12.808Z,0.78
2019-05-30T07:25:41.532Z,1.50
2019-05-30T07:28:10.116Z,0.80
2019-05-30T07:30:38.946Z,1.00
2019-05-30T07:33:07.592Z,0.72
2019-05-30T07:35:36.326Z,0.85
2019-05-30T07:38:05.080Z,0.62
2019-05-30T07:40:34.785Z,0.50
2019-05-30T07:43:03.621Z,0.65
2019-05-30T07:45:33.131Z,1.02
2019-05-30T07:48:01.862Z,0.40
2019-05-30T07:50:30.588Z,1.92
2019-05-30T07:52:59.271Z,1.95
2019-05-30T07:55:28.896Z,1.75
2019-05-30T07:57:57.704Z,1.75
2019-05-30T08:00:27.411Z,3.40
2019-05-30T08:02:56.259Z,1.07
2019-05-30T08:05:25.173Z,1.60
2019-05-30T08:07:54.310Z,2.62
2019-05-30T08:10:23.224Z,2.40
2019-05-30T08:12:51.960Z,1.75
2019-05-30T08:15:20.842Z,1.90
2019-05-30T08:17:49.568Z,1.57
2019-05-30T08:20:18.493Z,1.00
2019-05-30T08:22:47.211Z,1.65
2019-05-30T08:25:16.154Z,1.10
2019-05-30T08:27:44.876Z,1.30
2019-05-30T08:30:14.591Z,2.77
2019-05-30T08:32:43.344Z,3.15
2019-05-30T08:35:12.283Z,3.10
2019-05-30T08:37:41.093Z,3.70
2019-05-30T08:40:11.618Z,2.40
2019-05-30T08:42:40.471Z,2.90
2019-05-30T08:45:10.304Z,3.20
2019-05-30T08:47:40.383Z,3.80
2019-05-30T08:50:10.273Z,4.80
2019-05-30T08:52:38.999Z,3.25
2019-05-30T08:55:08.140Z,3.00
2019-05-30T08:57:36.869Z,2.85
2019-05-30T09:00:10.157Z,3.00
2019-05-30T09:02:38.951Z,2.85
2019-05-30T09:05:09.020Z,4.60
2019-05-30T09:07:38.275Z,2.93
2019-05-30T09:10:09.475Z,2.98
2019-05-30T09:12:40.081Z,3.15
2019-05-30T09:15:13.530Z,2.25
2019-05-30T09:17:42.685Z,3.17
2019-05-30T09:20:12.535Z,2.80
2019-05-30T09:22:41.803Z,2.65
2019-05-30T09:25:12.276Z,2.95
2019-05-30T09:27:42.677Z,2.83
2019-05-30T09:30:13.791Z,4.97
2019-05-30T09:32:43.204Z,5.03
2019-05-30T09:35:13.201Z,2.87
2019-05-30T09:37:42.485Z,2.90
2019-05-30T09:40:13.946Z,4.00
2019-05-30T09:42:44.535Z,3.15
2019-05-30T09:45:15.563Z,2.92
2019-05-30T09:47:45.619Z,2.98
2019-05-30T09:50:14.905Z,1.82
2019-05-30T09:52:44.138Z,1.60
2019-05-30T09:55:14.674Z,1.50
2019-05-30T09:57:44.342Z,1.90
2019-05-30T10:00:19.175Z,1.80
2019-05-30T10:02:48.683Z,1.98
2019-05-30T10:05:18.141Z,4.28
2019-05-30T10:07:47.492Z,3.30
2019-05-30T10:10:17.272Z,1.98
2019-05-30T10:12:46.951Z,2.47
2019-05-30T10:15:17.636Z,2.65
2019-05-30T10:17:47.626Z,2.20
2019-05-30T10:20:17.212Z,2.65
2019-05-30T10:22:47.087Z,2.10
2019-05-30T10:25:16.537Z,2.47
2019-05-30T10:27:46.414Z,2.33
2019-05-30T10:30:15.945Z,2.20
2019-05-30T10:32:45.429Z,2.67
2019-05-30T10:35:15.240Z,2.90
2019-05-30T10:37:45.303Z,3.20
2019-05-30T10:40:15.991Z,2.87
2019-05-30T10:42:46.243Z,3.00
2019-05-30T10:45:15.322Z,2.70
2019-05-30T10:47:45.837Z,2.67
2019-05-30T10:50:14.526Z,2.93
2019-05-30T10:52:43.245Z,2.95
2019-05-30T10:55:12.473Z,2.92
2019-05-30T10:57:41.200Z,2.77
2019-05-30T11:00:12.897Z,2.90
2019-05-30T11:02:41.748Z,2.70
2019-05-30T11:05:12.576Z,2.70
2019-05-30T11:08:06.080Z,4.83
2019-05-30T11:13:13.196Z,2.65
2019-05-30T11:15:42.953Z,2.15
2019-05-30T11:18:11.760Z,2.00
2019-05-30T11:20:40.481Z,2.20
2019-05-30T11:23:09.287Z,2.17
2019-05-30T11:25:38.008Z,2.33
2019-05-30T11:28:07.937Z,2.58
2019-05-30T11:30:36.758Z,2.00
2019-05-30T11:33:06.008Z,2.00
2019-05-30T11:35:34.804Z,1.95
2019-05-30T11:38:04.137Z,1.77
2019-05-30T11:40:32.932Z,4.62
2019-05-30T11:43:01.692Z,2.15
2019-05-30T11:45:30.513Z,2.15
2019-05-30T11:48:00.145Z,2.30
2019-05-30T11:50:29.574Z,2.17
2019-05-30T11:52:58.236Z,2.08
2019-05-30T11:55:27.166Z,2.37
2019-05-30T11:57:56.231Z,1.80
2019-05-30T12:00:25.886Z,2.17
2019-05-30T12:02:54.605Z,1.75
2019-05-30T12:05:23.437Z,2.47
2019-05-30T12:07:52.819Z,2.45
2019-05-30T12:10:22.229Z,1.80
2019-05-30T12:12:51.190Z,3.02
2019-05-30T12:15:20.289Z,1.87
2019-05-30T12:17:48.973Z,1.50
2019-05-30T12:20:18.483Z,2.40
2019-05-30T12:22:47.201Z,2.52
2019-05-30T12:25:16.907Z,3.58
2019-05-30T12:27:45.623Z,6.10
2019-05-30T12:30:14.981Z,0.82
2019-05-30T12:32:43.632Z,0.93
2019-05-30T12:35:15.272Z,1.77
2019-05-30T12:37:54.123Z,1.30
2019-05-30T12:40:15.060Z,2.87
2019-05-30T12:42:43.751Z,1.47
2019-05-30T12:45:14.236Z,1.65
2019-05-30T12:47:42.960Z,1.90
2019-05-30T12:50:16.539Z,1.57
2019-05-30T12:52:44.160Z,1.67
2019-05-30T12:55:13.796Z,2.15
2019-05-30T12:57:42.517Z,2.20
2019-05-30T13:00:18.196Z,2.70
2019-05-30T13:02:44.461Z,2.10
2019-05-30T13:05:13.396Z,4.65
2019-05-30T13:07:42.100Z,2.40
2019-05-30T13:10:11.418Z,3.20
2019-05-30T13:12:40.084Z,1.07
2019-05-30T13:15:09.317Z,1.82
2019-05-30T13:17:38.293Z,3.87
2019-05-30T13:20:09.033Z,3.58
2019-05-30T13:22:38.149Z,2.75
2019-05-30T13:25:09.000Z,0.93
2019-05-30T13:27:37.809Z,0.80
2019-05-30T13:30:08.709Z,1.27
2019-05-30T13:32:37.440Z,0.90
2019-05-30T13:35:08.061Z,1.60
2019-05-30T13:37:36.787Z,0.90
2019-05-30T13:40:24.278Z,0.98
2019-05-30T13:42:41.134Z,3.92
2019-05-30T13:45:11.020Z,0.80
2019-05-30T13:47:39.915Z,1.30
2019-05-30T13:50:13.454Z,2.10
2019-05-30T13:52:40.533Z,1.05
2019-05-30T13:55:12.759Z,0.98
2019-05-30T13:57:41.476Z,1.72
2019-05-30T14:00:12.636Z,0.75
2019-05-30T14:05:10.534Z,1.10
2019-05-30T14:07:39.466Z,1.32
2019-05-30T14:10:08.880Z,0.90
2019-05-30T14:12:37.505Z,0.70
2019-05-30T14:15:10.492Z,0.90
2019-05-30T14:17:39.383Z,1.10
2019-05-30T14:20:11.059Z,0.70
2019-05-30T14:22:40.136Z,0.70
2019-05-30T14:25:09.804Z,0.70
2019-05-30T14:27:39.099Z,0.80
2019-05-30T14:30:09.186Z,0.85
2019-05-30T14:32:37.927Z,1.30
2019-05-30T14:35:11.697Z,0.70
2019-05-30T14:37:40.070Z,0.75
2019-05-30T14:40:11.006Z,0.80
2019-05-30T14:45:08.592Z,0.78
2019-05-30T14:47:37.273Z,0.70
2019-05-30T14:50:08.878Z,0.70
2019-05-30T14:52:37.705Z,1.25
2019-05-30T14:55:07.520Z,0.62
2019-05-30T14:57:36.173Z,1.40
2019-05-30T15:00:17.684Z,1.30
2019-05-30T15:02:46.571Z,1.17
2019-05-30T15:05:15.867Z,0.60
2019-05-30T15:07:44.664Z,0.68
2019-05-30T15:10:13.888Z,0.98
2019-05-30T15:12:42.613Z,0.90
2019-05-30T15:15:16.743Z,0.68
2019-05-30T15:17:43.848Z,0.68
2019-05-30T15:20:13.865Z,0.80
2019-05-30T15:22:42.698Z,0.75
2019-05-30T15:25:16.530Z,0.88
2019-05-30T15:27:43.467Z,0.90
2019-05-30T15:30:14.747Z,0.65
2019-05-30T15:32:43.811Z,1.12
2019-05-30T15:35:13.159Z,0.82
2019-05-30T15:37:41.872Z,0.98
2019-05-30T15:40:13.035Z,0.98
2019-05-30T15:45:11.745Z,1.10
2019-05-30T15:47:40.626Z,0.93
2019-05-30T15:50:11.276Z,0.85
2019-05-30T15:55:09.251Z,1.00
2019-05-30T15:57:37.948Z,0.80
2019-05-30T16:00:09.922Z,1.12
2019-05-30T16:02:38.870Z,1.20
2019-05-30T16:05:08.629Z,1.27
2019-05-30T16:07:37.280Z,2.72
2019-05-30T16:10:06.928Z,0.90
2019-05-30T16:12:35.649Z,0.70
2019-05-30T16:15:06.968Z,1.00
2019-05-30T16:17:35.637Z,1.30
2019-05-30T16:20:05.555Z,1.30
2019-05-30T16:22:34.328Z,1.07
2019-05-30T16:25:03.257Z,0.80
2019-05-30T16:27:31.985Z,0.70
2019-05-30T16:30:00.747Z,1.42
2019-05-30T16:32:29.414Z,2.33
2019-05-30T16:34:58.140Z,1.20
2019-05-30T16:37:26.882Z,0.78
2019-05-30T16:40:06.122Z,0.60
2019-05-30T16:42:26.519Z,1.00
2019-05-30T16:44:55.328Z,0.80
2019-05-30T16:47:23.977Z,1.25
2019-05-30T16:49:52.689Z,1.30
2019-05-30T16:52:21.380Z,0.90
2019-05-30T16:54:50.024Z,1.00
2019-05-30T16:57:18.758Z,0.80
2019-05-30T16:59:47.476Z,0.75
2019-05-30T17:02:16.939Z,0.60
2019-05-30T17:04:45.861Z,1.52
2019-05-30T17:07:15.037Z,1.57
2019-05-30T17:09:43.839Z,1.00
2019-05-30T17:12:12.532Z,0.90
2019-05-30T17:14:41.252Z,1.05
2019-05-30T17:17:10.114Z,0.78
2019-05-30T17:19:39.629Z,1.02
2019-05-30T17:22:09.361Z,0.80
2019-05-30T17:24:38.012Z,1.00
2019-05-30T17:27:06.733Z,0.90
2019-05-30T17:29:35.416Z,0.82
2019-05-30T17:32:04.149Z,1.67
2019-05-30T17:34:32.804Z,1.00
2019-05-30T17:37:01.477Z,0.98
2019-05-30T17:39:30.196Z,0.93
2019-05-30T17:41:58.928Z,0.85
2019-05-30T17:44:27.647Z,0.88
2019-05-30T17:46:56.404Z,1.17
2019-05-30T17:49:25.847Z,0.88
2019-05-30T17:51:54.618Z,0.70
2019-05-30T17:54:23.850Z,1.15
2019-05-30T17:56:52.667Z,0.88
2019-05-30T17:59:22.329Z,1.20
2019-05-30T18:01:51.161Z,0.90
2019-05-30T18:04:20.417Z,0.82
2019-05-30T18:06:49.216Z,1.00
2019-05-30T18:09:17.949Z,1.00
2019-05-30T18:11:46.691Z,1.00
2019-05-30T18:14:15.393Z,1.05
2019-05-30T18:16:44.128Z,0.90
2019-05-30T18:19:12.786Z,1.00
2019-05-30T18:21:41.533Z,1.00
2019-05-30T18:24:10.248Z,1.22
2019-05-30T18:26:38.930Z,1.17
2019-05-30T18:29:07.589Z,1.22
2019-05-30T18:31:36.301Z,1.20
2019-05-30T18:34:05.024Z,1.20
2019-05-30T18:36:33.776Z,1.22
2019-05-30T18:39:02.664Z,1.30
2019-05-30T18:41:31.389Z,1.20
2019-05-30T18:44:00.040Z,1.47
2019-05-30T18:46:29.151Z,2.10
2019-05-30T18:48:57.920Z,1.75
2019-05-30T18:51:26.716Z,1.30
2019-05-30T18:53:55.398Z,1.30
2019-05-30T18:56:24.545Z,1.27
2019-05-30T18:58:53.447Z,1.10
2019-05-30T19:01:22.114Z,1.82
2019-05-30T19:03:50.928Z,1.30
2019-05-30T19:06:19.729Z,1.20
2019-05-30T19:08:48.374Z,1.12
2019-05-30T19:11:27.453Z,1.50
2019-05-30T19:13:47.493Z,1.32
2019-05-30T19:16:16.154Z,1.40
2019-05-30T19:18:45.703Z,1.50
2019-05-30T19:21:14.416Z,1.32
2019-05-30T19:23:43.034Z,1.30
2019-05-30T19:26:11.824Z,1.60
2019-05-30T19:28:40.581Z,1.27
2019-05-30T19:31:09.308Z,1.17
2019-05-30T19:33:37.884Z,1.00
2019-05-30T19:36:06.605Z,1.00
2019-05-30T19:38:35.503Z,1.27
2019-05-30T19:41:04.452Z,1.27
2019-05-30T19:43:33.774Z,1.20
2019-05-30T19:46:02.608Z,1.30
2019-05-30T19:48:32.276Z,1.15
2019-05-30T19:51:01.117Z,1.35
2019-05-30T19:53:30.804Z,1.27
2019-05-30T19:55:59.590Z,1.52
2019-05-30T19:58:29.436Z,1.30
2019-05-30T20:00:59.194Z,1.30
2019-05-30T20:03:40.958Z,1.05
2019-05-30T20:05:58.329Z,1.57
2019-05-30T20:08:42.042Z,1.42
2019-05-30T20:10:57.272Z,1.10
2019-05-30T20:13:26.007Z,1.42
2019-05-30T20:15:54.729Z,1.15
2019-05-30T20:18:23.452Z,1.10
2019-05-30T20:20:57.688Z,1.20
2019-05-30T20:23:22.549Z,1.10
2019-05-30T20:25:51.385Z,1.30
2019-05-30T20:28:20.136Z,1.20
2019-05-30T20:30:48.873Z,1.20
2019-05-30T20:33:17.594Z,1.50
2019-05-30T20:35:46.985Z,1.27
2019-05-30T20:38:15.733Z,1.12
2019-05-30T20:40:44.457Z,1.32
2019-05-30T20:43:13.173Z,1.27
2019-05-30T20:45:46.971Z,1.20
2019-05-30T20:48:12.332Z,1.10
2019-05-30T20:50:41.224Z,1.35
2019-05-30T20:53:09.968Z,1.50
2019-05-30T20:55:38.633Z,1.20
2019-05-30T20:58:07.349Z,1.32
2019-05-30T21:00:40.241Z,1.30
2019-05-30T21:03:09.311Z,2.10
2019-05-30T21:05:38.240Z,1.25
2019-05-30T21:08:06.969Z,1.65
2019-05-30T21:10:36.911Z,1.57
2019-05-30T21:13:06.668Z,1.70
2019-05-30T21:15:38.000Z,1.60
2019-05-30T21:20:35.800Z,1.62
2019-05-30T21:23:04.661Z,1.47
2019-05-30T21:25:35.727Z,1.40
2019-05-30T21:28:03.680Z,1.37
2019-05-30T21:30:32.409Z,1.60
2019-05-30T21:33:01.255Z,1.50
2019-05-30T21:35:30.049Z,1.25
2019-05-30T21:37:58.736Z,1.40
2019-05-30T21:40:28.984Z,1.35
2019-05-30T21:43:05.971Z,1.40
2019-05-30T21:45:27.942Z,1.30
2019-05-30T21:47:56.592Z,1.57
2019-05-30T21:50:25.240Z,1.85
2019-05-30T21:52:53.973Z,1.57
2019-05-30T21:55:22.693Z,1.60
2019-05-30T21:57:51.422Z,1.37
2019-05-30T22:00:50.711Z,1.20
2019-05-30T22:03:19.589Z,1.40
2019-05-30T22:05:49.711Z,1.30
2019-05-30T22:08:18.640Z,1.50
2019-05-30T22:10:47.660Z,1.57
2019-05-30T22:13:16.360Z,1.60
2019-05-30T22:15:45.978Z,1.60
2019-05-30T22:18:14.847Z,1.37
2019-05-30T22:20:43.823Z,1.25
2019-05-30T22:23:12.688Z,1.60
2019-05-30T22:25:42.293Z,1.20
2019-05-30T22:28:10.945Z,1.20
2019-05-30T22:30:39.672Z,1.30
2019-05-30T22:33:08.392Z,1.30
2019-05-30T22:35:37.052Z,1.40
2019-05-30T22:38:05.773Z,1.30
2019-05-30T22:40:34.472Z,1.50
2019-05-30T22:43:03.197Z,1.70
2019-05-30T22:45:31.916Z,2.67
2019-05-30T22:48:00.597Z,3.47
2019-05-30T22:50:29.243Z,3.08
2019-05-30T22:52:57.971Z,2.17
2019-05-30T22:55:26.684Z,1.92
2019-05-30T22:57:56.709Z,2.08
2019-05-30T23:00:25.549Z,1.65
2019-05-30T23:02:54.228Z,1.45
2019-05-30T23:05:22.952Z,1.50
2019-05-30T23:07:55.549Z,1.67
2019-05-30T23:10:24.286Z,1.07
2019-05-30T23:12:53.968Z,1.12
2019-05-30T23:15:22.912Z,1.15
2019-05-30T23:17:52.813Z,1.32
2019-05-30T23:20:21.628Z,1.27
2019-05-30T23:22:50.971Z,1.47
2019-05-30T23:25:19.724Z,1.22
2019-05-30T23:27:49.460Z,1.60
2019-05-30T23:30:18.373Z,1.17
2019-05-30T23:32:48.135Z,1.30
2019-05-30T23:35:17.008Z,1.50
2019-05-30T23:37:45.673Z,2.00
2019-05-30T23:40:14.590Z,1.65
2019-05-30T23:42:43.240Z,1.60
2019-05-30T23:45:11.970Z,1.52
2019-05-30T23:47:40.624Z,1.37
2019-05-30T23:50:09.643Z,1.60
2019-05-30T23:52:38.297Z,1.25
2019-05-30T23:55:07.538Z,1.52
2019-05-30T23:57:36.260Z,1.42
